createdAt,value
2023-04-15T00:02:18.615Z,100175.00
2023-04-15T00:04:49.063Z,100173.00
2023-04-15T00:07:17.194Z,100165.00
2023-04-15T00:09:44.985Z,100177.00
2023-04-15T00:12:12.181Z,100171.00
2023-04-15T00:14:38.838Z,100176.00
2023-04-15T00:17:05.499Z,100170.00
2023-04-15T00:19:32.604Z,100158.00
2023-04-15T00:22:00.276Z,100168.00
2023-04-15T00:24:26.938Z,100169.00
2023-04-15T00:26:53.923Z,100161.00
2023-04-15T00:29:21.248Z,100167.00
2023-04-15T00:31:48.128Z,100158.00
2023-04-15T00:34:14.979Z,100159.00
2023-04-15T00:36:41.786Z,100160.00
2023-04-15T00:39:08.768Z,100150.00
2023-04-15T00:41:35.350Z,100150.00
2023-04-15T00:44:02.475Z,100149.00
2023-04-15T00:46:33.133Z,100149.00
2023-04-15T00:49:00.832Z,100147.00
2023-04-15T00:51:27.508Z,100158.00
2023-04-15T00:53:54.518Z,100150.00
2023-04-15T00:56:24.661Z,100149.00
2023-04-15T00:58:52.402Z,100153.00
2023-04-15T01:01:22.469Z,100144.00
2023-04-15T01:03:53.262Z,100149.00
2023-04-15T01:06:19.990Z,100147.00
2023-04-15T01:08:46.866Z,100146.00
2023-04-15T01:11:14.043Z,100142.00
2023-04-15T01:13:40.906Z,100137.00
2023-04-15T01:16:08.801Z,100141.00
2023-04-15T01:18:38.982Z,100137.00
2023-04-15T01:21:07.447Z,100142.00
2023-04-15T01:23:38.732Z,100136.00
2023-04-15T01:26:08.132Z,100133.00
2023-04-15T01:28:36.208Z,100142.00
2023-04-15T01:31:13.956Z,100137.00
2023-04-15T01:33:42.676Z,100135.00
2023-04-15T01:36:10.964Z,100123.00
2023-04-15T01:38:38.442Z,100119.00
2023-04-15T01:41:07.666Z,100133.00
2023-04-15T01:43:40.212Z,100124.00
2023-04-15T01:46:07.363Z,100128.00
2023-04-15T01:48:34.623Z,100131.00
2023-04-15T01:51:01.521Z,100124.00
2023-04-15T01:53:28.286Z,100125.00
2023-04-15T01:55:54.854Z,100128.00
2023-04-15T01:58:22.627Z,100129.00
2023-04-15T02:00:49.488Z,100121.00
2023-04-15T02:03:16.346Z,100121.00
2023-04-15T02:05:43.737Z,100128.00
2023-04-15T02:08:10.322Z,100127.00
2023-04-15T02:10:37.009Z,100121.00
2023-04-15T02:13:04.457Z,100116.00
2023-04-15T02:15:31.108Z,100120.00
2023-04-15T02:17:59.344Z,100128.00
2023-04-15T02:20:26.413Z,100120.00
2023-04-15T02:22:53.070Z,100123.00
2023-04-15T02:25:20.716Z,100118.00
2023-04-15T02:27:47.308Z,100116.00
2023-04-15T02:30:14.147Z,100125.00
2023-04-15T02:32:41.529Z,100125.00
2023-04-15T02:35:09.227Z,100122.00
2023-04-15T02:37:40.861Z,100127.00
2023-04-15T02:40:13.555Z,100123.00
2023-04-15T02:42:41.110Z,100122.00
2023-04-15T02:45:08.568Z,100124.00
2023-04-15T02:47:36.269Z,100129.00
2023-04-15T02:50:04.292Z,100129.00
2023-04-15T02:52:31.222Z,100130.00
2023-04-15T02:55:00.747Z,100132.00
2023-04-15T02:57:31.254Z,100131.00
2023-04-15T02:59:57.900Z,100117.00
2023-04-15T03:02:24.768Z,100122.00
2023-04-15T03:04:51.845Z,100124.00
2023-04-15T03:07:19.865Z,100135.00
2023-04-15T03:09:47.833Z,100132.00
2023-04-15T03:12:14.876Z,100141.00
2023-04-15T03:14:41.715Z,100135.00
2023-04-15T03:17:08.306Z,100130.00
2023-04-15T03:19:34.939Z,100126.00
2023-04-15T03:22:01.592Z,100135.00
2023-04-15T03:24:29.748Z,100122.00
2023-04-15T03:26:57.935Z,100121.00
2023-04-15T03:29:24.592Z,100135.00
2023-04-15T03:31:52.572Z,100136.00
2023-04-15T03:34:19.523Z,100133.00
2023-04-15T03:36:46.942Z,100145.00
2023-04-15T03:39:13.737Z,100131.00
2023-04-15T03:41:40.820Z,100139.00
2023-04-15T03:44:07.382Z,100136.00
2023-04-15T03:46:34.060Z,100141.00
2023-04-15T03:49:00.938Z,100128.00
2023-04-15T03:51:27.658Z,100135.00
2023-04-15T03:53:54.514Z,100128.00
2023-04-15T03:56:21.065Z,100130.00
2023-04-15T03:58:47.674Z,100143.00
2023-04-15T04:01:14.566Z,100134.00
2023-04-15T04:03:41.512Z,100124.00
2023-04-15T04:06:08.478Z,100130.00
2023-04-15T04:08:35.094Z,100126.00
2023-04-15T04:11:02.083Z,100133.00
2023-04-15T04:13:28.926Z,100140.00
2023-04-15T04:15:56.507Z,100143.00
2023-04-15T04:18:23.416Z,100147.00
2023-04-15T04:20:50.051Z,100139.00
2023-04-15T04:23:16.699Z,100141.00
2023-04-15T04:25:43.696Z,100146.00
2023-04-15T04:28:10.344Z,100144.00
2023-04-15T04:30:37.174Z,100137.00
2023-04-15T04:33:03.958Z,100134.00
2023-04-15T04:35:30.564Z,100140.00
2023-04-15T04:37:57.386Z,100139.00
2023-04-15T04:40:25.116Z,100142.00
2023-04-15T04:42:51.627Z,100156.00
2023-04-15T04:45:18.268Z,100143.00
2023-04-15T04:47:44.895Z,100145.00
2023-04-15T04:50:11.659Z,100158.00
2023-04-15T04:52:38.653Z,100151.00
2023-04-15T04:55:05.804Z,100157.00
2023-04-15T04:57:32.530Z,100155.00
2023-04-15T04:59:59.137Z,100164.00
2023-04-15T05:02:27.334Z,100159.00
2023-04-15T05:04:54.812Z,100161.00
2023-04-15T05:07:21.446Z,100160.00
2023-04-15T05:09:48.172Z,100167.00
2023-04-15T05:12:15.529Z,100163.00
2023-04-15T05:14:42.496Z,100170.00
2023-04-15T05:17:09.154Z,100161.00
2023-04-15T05:19:36.065Z,100176.00
2023-04-15T05:22:03.024Z,100168.00
2023-04-15T05:24:29.641Z,100165.00
2023-04-15T05:26:57.203Z,100172.00
2023-04-15T05:29:23.933Z,100166.00
2023-04-15T05:31:51.041Z,100172.00
2023-04-15T05:34:17.641Z,100175.00
2023-04-15T05:36:44.271Z,100177.00
2023-04-15T05:39:10.945Z,100178.00
2023-04-15T05:41:38.217Z,100183.00
2023-04-15T05:44:05.169Z,100180.00
2023-04-15T05:46:31.918Z,100171.00
2023-04-15T05:48:58.621Z,100175.00
2023-04-15T05:51:25.965Z,100182.00
2023-04-15T05:53:52.595Z,100185.00
2023-04-15T05:56:20.441Z,100184.00
2023-04-15T05:58:47.168Z,100185.00
2023-04-15T06:01:13.866Z,100183.00
2023-04-15T06:03:40.813Z,100194.00
2023-04-15T06:06:11.120Z,100183.00
2023-04-15T06:08:37.729Z,100181.00
2023-04-15T06:11:04.453Z,100176.00
2023-04-15T06:13:31.091Z,100155.00
2023-04-15T06:15:57.932Z,100125.00
2023-04-15T06:18:24.678Z,100089.00
2023-04-15T06:20:51.812Z,100167.00
2023-04-15T06:23:18.420Z,100177.00
2023-04-15T06:25:45.088Z,100177.00
2023-04-15T06:28:12.453Z,100163.00
2023-04-15T06:30:39.196Z,100076.00
2023-04-15T06:33:06.850Z,100144.00
2023-04-15T06:35:34.004Z,100086.00
2023-04-15T06:38:00.706Z,99953.00
2023-04-15T06:40:27.876Z,100080.00
2023-04-15T06:42:55.106Z,100172.00
2023-04-15T06:45:21.603Z,100178.00
2023-04-15T06:47:48.129Z,100192.00
2023-04-15T06:50:14.784Z,100191.00
2023-04-15T06:52:41.602Z,100192.00
2023-04-15T06:55:08.833Z,100187.00
2023-04-15T06:57:35.634Z,100168.00
2023-04-15T07:00:06.023Z,100171.00
2023-04-15T07:02:32.650Z,100183.00
2023-04-15T07:04:59.313Z,100187.00
2023-04-15T07:07:26.491Z,100192.00
2023-04-15T07:09:53.910Z,100206.00
2023-04-15T07:12:20.933Z,100209.00
2023-04-15T07:14:47.711Z,100214.00
2023-04-15T07:17:15.973Z,100219.00
2023-04-15T07:19:42.633Z,100217.00
2023-04-15T07:22:09.185Z,100226.00
2023-04-15T07:24:36.407Z,100232.00
2023-04-15T07:27:04.264Z,100231.00
2023-04-15T07:29:32.184Z,100238.00
2023-04-15T07:31:59.789Z,100242.00
2023-04-15T07:34:27.016Z,100242.00
2023-04-15T07:36:53.612Z,100242.00
2023-04-15T07:39:20.194Z,100246.00
2023-04-15T07:41:46.701Z,100256.00
2023-04-15T07:44:13.236Z,100262.00
2023-04-15T07:46:39.906Z,100265.00
2023-04-15T07:49:07.758Z,100260.00
2023-04-15T07:51:34.579Z,100260.00
2023-04-15T07:54:01.439Z,100257.00
2023-04-15T07:56:27.983Z,100252.00
2023-04-15T07:58:54.672Z,100256.00
2023-04-15T08:01:21.864Z,100259.00
2023-04-15T08:03:48.902Z,100257.00
2023-04-15T08:06:15.623Z,100253.00
2023-04-15T08:08:43.208Z,100256.00
2023-04-15T08:11:09.883Z,100267.00
2023-04-15T08:13:36.428Z,100264.00
2023-04-15T08:16:39.986Z,100268.00
2023-04-15T08:19:09.610Z,100274.00
2023-04-15T08:21:36.725Z,100274.00
2023-04-15T08:24:04.122Z,100283.00
2023-04-15T08:26:31.249Z,100270.00
2023-04-15T08:29:00.252Z,100279.00
2023-04-15T08:31:27.492Z,100279.00
2023-04-15T08:33:55.436Z,100289.00
2023-04-15T08:36:22.307Z,100285.00
2023-04-15T08:38:48.918Z,100288.00
2023-04-15T08:41:25.491Z,100293.00
2023-04-15T08:44:02.156Z,100285.00
2023-04-15T08:46:31.428Z,100280.00
2023-04-15T08:48:58.986Z,100281.00
2023-04-15T08:51:26.502Z,100288.00
2023-04-15T08:53:53.277Z,100297.00
2023-04-15T08:56:24.719Z,100286.00
2023-04-15T08:58:51.448Z,100281.00
2023-04-15T09:01:18.510Z,100291.00
2023-04-15T09:03:47.770Z,100290.00
2023-04-15T09:06:17.519Z,100297.00
2023-04-15T09:08:46.712Z,100305.00
2023-04-15T09:11:19.374Z,100298.00
2023-04-15T09:13:46.994Z,100300.00
2023-04-15T09:16:13.895Z,100309.00
2023-04-15T09:18:40.391Z,100303.00
2023-04-15T09:21:09.452Z,100303.00
2023-04-15T09:23:36.290Z,100308.00
2023-04-15T09:26:03.900Z,100310.00
2023-04-15T09:28:31.178Z,100310.00
2023-04-15T09:31:02.229Z,100310.00
2023-04-15T09:33:30.517Z,100323.00
2023-04-15T09:35:58.740Z,100314.00
2023-04-15T09:38:26.721Z,100318.00
2023-04-15T09:40:56.121Z,100319.00
2023-04-15T09:43:23.031Z,100311.00
2023-04-15T09:45:52.500Z,100323.00
2023-04-15T09:48:27.327Z,100317.00
2023-04-15T09:50:55.039Z,100339.00
2023-04-15T09:53:23.653Z,100323.00
2023-04-15T09:55:58.252Z,100340.00
2023-04-15T09:58:31.617Z,100338.00
2023-04-15T10:01:01.950Z,100346.00
2023-04-15T10:03:31.236Z,100346.00
2023-04-15T10:06:00.235Z,100340.00
2023-04-15T10:08:32.993Z,100357.00
2023-04-15T10:11:03.046Z,100348.00
2023-04-15T10:13:35.146Z,100350.00
2023-04-15T10:16:16.486Z,100361.00
2023-04-15T10:18:46.576Z,100360.00
2023-04-15T10:21:16.432Z,100364.00
2023-04-15T10:23:47.967Z,100361.00
2023-04-15T10:26:15.570Z,100354.00
2023-04-15T10:28:42.188Z,100364.00
2023-04-15T10:31:10.253Z,100357.00
2023-04-15T10:33:38.001Z,100357.00
2023-04-15T10:36:06.552Z,100362.00
2023-04-15T10:38:42.138Z,100364.00
2023-04-15T10:41:21.838Z,100370.00
2023-04-15T10:44:02.609Z,100368.00
2023-04-15T10:46:38.062Z,100369.00
2023-04-15T10:49:15.682Z,100363.00
2023-04-15T10:52:03.207Z,100366.00
2023-04-15T10:54:30.035Z,100367.00
2023-04-15T10:57:06.236Z,100370.00
2023-04-15T10:59:36.463Z,100375.00
2023-04-15T11:02:06.040Z,100375.00
2023-04-15T11:05:00.357Z,100381.00
2023-04-15T11:07:46.779Z,100383.00
2023-04-15T11:10:26.278Z,100384.00
2023-04-15T11:12:55.113Z,100385.00
2023-04-15T11:15:41.148Z,100390.00
2023-04-15T11:18:23.258Z,100390.00
2023-04-15T11:20:59.971Z,100393.00
2023-04-15T11:23:37.969Z,100404.00
2023-04-15T11:26:09.370Z,100404.00
2023-04-15T11:28:38.761Z,100407.00
2023-04-15T11:31:18.361Z,100401.00
2023-04-15T11:33:55.939Z,100406.00
2023-04-15T11:36:26.539Z,100409.00
2023-04-15T11:38:53.357Z,100406.00
2023-04-15T11:41:23.715Z,100405.00
2023-04-15T11:43:53.629Z,100411.00
2023-04-15T11:46:22.011Z,100415.00
2023-04-15T11:48:48.666Z,100414.00
2023-04-15T11:51:15.609Z,100426.00
2023-04-15T11:53:46.425Z,100424.00
2023-04-15T11:56:21.207Z,100430.00
2023-04-15T11:58:51.513Z,100433.00
2023-04-15T12:01:19.247Z,100440.00
2023-04-15T12:04:03.120Z,100439.00
2023-04-15T12:06:37.477Z,100443.00
2023-04-15T12:09:07.045Z,100440.00
2023-04-15T12:11:41.002Z,100441.00
2023-04-15T12:14:13.691Z,100443.00
2023-04-15T12:16:47.936Z,100447.00
2023-04-15T12:19:37.816Z,100443.00
2023-04-15T12:22:06.745Z,100449.00
2023-04-15T12:24:35.015Z,100455.00
2023-04-15T12:27:09.822Z,100456.00
2023-04-15T12:29:38.621Z,100459.00
2023-04-15T12:32:05.388Z,100455.00
2023-04-15T12:34:34.680Z,100457.00
2023-04-15T12:37:03.284Z,100465.00
2023-04-15T12:39:36.690Z,100470.00
2023-04-15T12:42:04.547Z,100464.00
2023-04-15T12:44:31.808Z,100463.00
2023-04-15T12:46:58.675Z,100474.00
2023-04-15T12:49:27.068Z,100473.00
2023-04-15T12:51:55.427Z,100468.00
2023-04-15T12:54:22.467Z,100479.00
2023-04-15T12:56:50.668Z,100471.00
2023-04-15T12:59:21.353Z,100482.00
2023-04-15T13:01:49.068Z,100477.00
2023-04-15T13:04:16.748Z,100483.00
2023-04-15T13:06:43.580Z,100495.00
2023-04-15T13:09:10.468Z,100483.00
2023-04-15T13:11:37.200Z,100485.00
2023-04-15T13:14:05.607Z,100492.00
2023-04-15T13:16:33.197Z,100497.00
2023-04-15T13:19:01.093Z,100497.00
2023-04-15T13:21:27.777Z,100496.00
2023-04-15T13:23:54.630Z,100503.00
2023-04-15T13:26:21.539Z,100489.00
2023-04-15T13:28:48.287Z,100508.00
2023-04-15T13:31:14.880Z,100499.00
2023-04-15T13:33:41.695Z,100500.00
2023-04-15T13:36:09.076Z,100504.00
2023-04-15T13:38:36.348Z,100505.00
2023-04-15T13:41:03.124Z,100504.00
2023-04-15T13:43:29.617Z,100512.00
2023-04-15T13:45:56.520Z,100514.00
2023-04-15T13:48:23.183Z,100512.00
2023-04-15T13:50:50.468Z,100519.00
2023-04-15T13:53:17.086Z,100520.00
2023-04-15T13:55:43.825Z,100523.00
2023-04-15T13:58:11.224Z,100530.00
2023-04-15T14:00:37.841Z,100532.00
2023-04-15T14:03:05.156Z,100538.00
2023-04-15T14:05:32.957Z,100534.00
2023-04-15T14:08:00.241Z,100537.00
2023-04-15T14:10:26.812Z,100538.00
2023-04-15T14:12:53.364Z,100543.00
2023-04-15T14:15:19.992Z,100545.00
2023-04-15T14:17:46.604Z,100547.00
2023-04-15T14:20:14.516Z,100551.00
2023-04-15T14:22:43.052Z,100547.00
2023-04-15T14:25:13.171Z,100562.00
2023-04-15T14:27:43.985Z,100567.00
2023-04-15T14:30:11.724Z,100566.00
2023-04-15T14:32:38.297Z,100569.00
2023-04-15T14:35:05.965Z,100565.00
2023-04-15T14:37:32.982Z,100562.00
2023-04-15T14:39:59.549Z,100573.00
2023-04-15T14:42:26.105Z,100572.00
2023-04-15T14:44:52.997Z,100574.00
2023-04-15T14:47:19.820Z,100575.00
2023-04-15T14:49:46.502Z,100575.00
2023-04-15T14:52:13.824Z,100580.00
2023-04-15T14:54:40.970Z,100588.00
2023-04-15T14:57:08.849Z,100588.00
2023-04-15T14:59:35.585Z,100583.00
2023-04-15T15:02:02.335Z,100589.00
2023-04-15T15:04:29.414Z,100595.00
2023-04-15T15:06:56.529Z,100599.00
2023-04-15T15:09:23.944Z,100598.00
2023-04-15T15:11:51.009Z,100601.00
2023-04-15T15:14:17.600Z,100607.00
2023-04-15T15:16:44.322Z,100609.00
2023-04-15T15:19:11.096Z,100612.00
2023-04-15T15:21:37.772Z,100609.00
2023-04-15T15:24:04.637Z,100611.00
2023-04-15T15:26:31.447Z,100611.00
2023-04-15T15:28:58.395Z,100613.00
2023-04-15T15:31:24.966Z,100628.00
2023-04-15T15:33:52.990Z,100621.00
2023-04-15T15:36:19.939Z,100622.00
2023-04-15T15:38:46.583Z,100628.00
2023-04-15T15:41:13.153Z,100626.00
2023-04-15T15:43:40.028Z,100632.00
2023-04-15T15:46:06.519Z,100635.00
2023-04-15T15:48:33.081Z,100623.00
2023-04-15T15:50:59.672Z,100632.00
2023-04-15T15:53:26.424Z,100640.00
2023-04-15T15:55:54.064Z,100640.00
2023-04-15T15:58:20.776Z,100647.00
2023-04-15T16:00:47.474Z,100647.00
2023-04-15T16:03:14.148Z,100646.00
2023-04-15T16:05:40.776Z,100647.00
2023-04-15T16:08:07.465Z,100651.00
2023-04-15T16:10:34.096Z,100654.00
2023-04-15T16:13:00.768Z,100648.00
2023-04-15T16:15:28.869Z,100657.00
2023-04-15T16:17:55.799Z,100660.00
2023-04-15T16:20:22.402Z,100654.00
2023-04-15T16:22:48.884Z,100661.00
2023-04-15T16:25:15.475Z,100671.00
2023-04-15T16:27:57.235Z,100661.00
2023-04-15T16:30:26.083Z,100668.00
2023-04-15T16:32:52.763Z,100662.00
2023-04-15T16:35:20.235Z,100665.00
2023-04-15T16:37:47.154Z,100677.00
2023-04-15T16:40:13.743Z,100673.00
2023-04-15T16:42:43.997Z,100674.00
2023-04-15T16:45:11.267Z,100678.00
2023-04-15T16:47:38.109Z,100684.00
2023-04-15T16:52:38.753Z,100687.00
2023-04-15T16:55:05.354Z,100684.00
2023-04-15T16:57:50.662Z,100692.00
2023-04-15T17:00:18.672Z,100691.00
2023-04-15T17:02:45.785Z,100698.00
2023-04-15T17:05:12.354Z,100703.00
2023-04-15T17:07:38.952Z,100703.00
2023-04-15T17:10:08.746Z,100704.00
2023-04-15T17:12:35.341Z,100706.00
2023-04-15T17:15:01.883Z,100710.00
2023-04-15T17:17:28.458Z,100718.00
2023-04-15T17:19:55.291Z,100715.00
2023-04-15T17:22:25.104Z,100719.00
2023-04-15T17:24:51.887Z,100719.00
2023-04-15T17:27:18.348Z,100722.00
2023-04-15T17:29:44.899Z,100720.00
2023-04-15T17:32:13.611Z,100725.00
2023-04-15T17:34:49.667Z,100732.00
2023-04-15T17:37:17.333Z,100733.00
2023-04-15T17:39:43.870Z,100739.00
2023-04-15T17:42:13.773Z,100746.00
2023-04-15T17:44:40.283Z,100752.00
2023-04-15T17:47:07.353Z,100742.00
2023-04-15T17:49:34.312Z,100755.00
2023-04-15T17:52:04.710Z,100756.00
2023-04-15T17:54:31.330Z,100749.00
2023-04-15T17:56:58.060Z,100755.00
2023-04-15T17:59:24.511Z,100762.00
2023-04-15T18:01:51.148Z,100763.00
2023-04-15T18:04:17.734Z,100763.00
2023-04-15T18:06:44.323Z,100776.00
2023-04-15T18:09:11.300Z,100771.00
2023-04-15T18:11:43.970Z,100768.00
2023-04-15T18:14:11.304Z,100777.00
2023-04-15T18:16:40.182Z,100781.00
2023-04-15T18:19:06.940Z,100795.00
2023-04-15T18:21:33.459Z,100793.00
2023-04-15T18:23:59.904Z,100790.00
2023-04-15T18:26:27.629Z,100805.00
2023-04-15T18:28:55.168Z,100798.00
2023-04-15T18:31:21.681Z,100798.00
2023-04-15T18:33:48.521Z,100802.00
2023-04-15T18:36:15.042Z,100812.00
2023-04-15T18:38:41.680Z,100813.00
2023-04-15T18:41:09.996Z,100820.00
2023-04-15T18:43:36.624Z,100825.00
2023-04-15T18:46:03.999Z,100824.00
2023-04-15T18:48:30.957Z,100819.00
2023-04-15T18:50:58.612Z,100825.00
2023-04-15T18:53:25.066Z,100820.00
2023-04-15T18:55:51.774Z,100830.00
2023-04-15T18:58:23.993Z,100836.00
2023-04-15T19:00:50.490Z,100836.00
2023-04-15T19:03:17.118Z,100848.00
2023-04-15T19:05:43.944Z,100844.00
2023-04-15T19:08:10.808Z,100853.00
2023-04-15T19:10:38.151Z,100846.00
2023-04-15T19:13:12.062Z,100854.00
2023-04-15T19:15:38.552Z,100859.00
2023-04-15T19:18:10.480Z,100853.00
2023-04-15T19:20:40.392Z,100863.00
2023-04-15T19:23:07.125Z,100862.00
2023-04-15T19:25:33.660Z,100868.00
2023-04-15T19:28:00.307Z,100868.00
2023-04-15T19:30:26.774Z,100869.00
2023-04-15T19:32:53.380Z,100873.00
2023-04-15T19:35:20.778Z,100864.00
2023-04-15T19:37:47.806Z,100872.00
2023-04-15T19:40:14.460Z,100876.00
2023-04-15T19:42:41.242Z,100885.00
2023-04-15T19:45:08.154Z,100884.00
2023-04-15T19:47:34.932Z,100883.00
2023-04-15T19:50:01.627Z,100887.00
2023-04-15T19:52:28.149Z,100890.00
2023-04-15T19:54:54.651Z,100886.00
2023-04-15T19:57:21.201Z,100886.00
2023-04-15T19:59:47.917Z,100889.00
2023-04-15T20:02:14.555Z,100896.00
2023-04-15T20:04:41.352Z,100894.00
2023-04-15T20:07:08.301Z,100896.00
2023-04-15T20:09:35.193Z,100899.00
2023-04-15T20:12:48.058Z,100901.00
2023-04-15T20:14:48.208Z,100899.00
2023-04-15T20:17:16.496Z,100902.00
2023-04-15T20:19:43.140Z,100902.00
2023-04-15T20:22:09.788Z,100893.00
2023-04-15T20:24:36.351Z,100905.00
2023-04-15T20:27:03.853Z,100896.00
2023-04-15T20:29:30.466Z,100904.00
2023-04-15T20:31:57.762Z,100906.00
2023-04-15T20:34:24.497Z,100913.00
2023-04-15T20:36:51.279Z,100915.00
2023-04-15T20:39:17.762Z,100915.00
2023-04-15T20:41:46.296Z,100913.00
2023-04-15T20:44:12.810Z,100910.00
2023-04-15T20:46:39.307Z,100913.00
2023-04-15T20:49:06.096Z,100915.00
2023-04-15T20:51:37.878Z,100919.00
2023-04-15T20:54:04.976Z,100915.00
2023-04-15T20:56:31.743Z,100912.00
2023-04-15T20:58:59.060Z,100916.00
2023-04-15T21:01:26.053Z,100918.00
2023-04-15T21:03:52.647Z,100922.00
2023-04-15T21:06:19.195Z,100922.00
2023-04-15T21:08:45.828Z,100922.00
2023-04-15T21:11:14.853Z,100924.00
2023-04-15T21:13:56.984Z,100931.00
2023-04-15T21:16:23.746Z,100926.00
2023-04-15T21:18:50.983Z,100921.00
2023-04-15T21:21:17.647Z,100932.00
2023-04-15T21:23:44.273Z,100933.00
2023-04-15T21:26:11.054Z,100937.00
2023-04-15T21:28:39.201Z,100948.00
2023-04-15T21:31:06.647Z,100949.00
2023-04-15T21:33:33.498Z,100947.00
2023-04-15T21:36:00.144Z,100945.00
2023-04-15T21:38:26.791Z,100954.00
2023-04-15T21:40:53.545Z,100961.00
2023-04-15T21:43:24.194Z,100965.00
2023-04-15T21:46:20.872Z,100963.00
2023-04-15T21:48:37.456Z,100959.00
2023-04-15T21:51:04.314Z,100963.00
2023-04-15T21:53:31.252Z,100965.00
2023-04-15T21:55:58.246Z,100970.00
2023-04-15T21:58:24.820Z,100964.00
2023-04-15T22:00:57.257Z,100977.00
2023-04-15T22:03:24.428Z,100979.00
2023-04-15T22:05:51.236Z,100982.00
2023-04-15T22:08:17.798Z,100981.00
2023-04-15T22:10:44.416Z,100976.00
2023-04-15T22:13:18.545Z,100980.00
2023-04-15T22:15:48.959Z,100985.00
2023-04-15T22:18:16.156Z,100988.00
2023-04-15T22:20:45.995Z,100987.00
2023-04-15T22:23:12.541Z,101000.00
2023-04-15T22:25:39.259Z,101002.00
2023-04-15T22:28:08.759Z,100997.00
2023-04-15T22:30:39.604Z,101006.00
2023-04-15T22:33:06.914Z,100999.00
2023-04-15T22:35:34.436Z,101007.00
2023-04-15T22:38:01.406Z,101014.00
2023-04-15T22:40:28.736Z,101015.00
2023-04-15T22:42:56.257Z,101009.00
2023-04-15T22:45:22.964Z,101020.00
2023-04-15T22:47:49.515Z,101017.00
2023-04-15T22:50:16.158Z,101018.00
2023-04-15T22:52:46.041Z,101025.00
2023-04-15T22:55:12.796Z,101025.00
2023-04-15T22:57:39.407Z,101021.00
2023-04-15T23:00:07.351Z,101021.00
2023-04-15T23:02:34.745Z,101030.00
2023-04-15T23:05:04.180Z,101034.00
2023-04-15T23:07:39.361Z,101028.00
2023-04-15T23:10:07.043Z,101032.00
2023-04-15T23:12:33.553Z,101033.00
2023-04-15T23:15:00.160Z,101036.00
2023-04-15T23:17:27.113Z,101043.00
2023-04-15T23:19:53.679Z,101042.00
2023-04-15T23:22:20.168Z,101051.00
2023-04-15T23:24:46.648Z,101043.00
2023-04-15T23:27:13.119Z,101048.00
2023-04-15T23:29:39.674Z,101046.00
2023-04-15T23:32:06.670Z,101045.00
2023-04-15T23:34:33.224Z,101046.00
2023-04-15T23:36:59.779Z,101046.00
2023-04-15T23:39:26.470Z,101047.00
2023-04-15T23:41:53.447Z,101050.00
2023-04-15T23:44:20.386Z,101055.00
2023-04-15T23:46:47.139Z,101054.00
2023-04-15T23:49:13.658Z,101054.00
2023-04-15T23:51:40.254Z,101046.00
2023-04-15T23:54:06.828Z,101052.00
2023-04-15T23:56:33.460Z,101057.00
2023-04-15T23:58:59.919Z,101055.00
